LOBO55 KNKX-KMYF
Flight info
| Callsign | LOBO55 |
|---|---|
| Flight time | 0h -3m |
| Altitude | VFR |
| Route | |
| Aircraft | TEX2/L-DOV/C |
Departure
| Time | 2026-04-23 04:08 |
|---|---|
| Airport | Miramar Marine Corps Air Station - Mitscher Field (KNKX) |
Arrival
| Time | 2026-04-23 04:05 |
|---|---|
| Airport | Montgomery-Gibbs Executive Airport (KMYF) |
| Time | Latitude | Longitude | Altitude | Speed | Heading |
|---|---|---|---|---|---|
| 2026-04-23 04:04 | 32.87522 | -117.12938 | 465 ft | 0 kts | 216° |
| 2026-04-23 04:06 | 32.87515 | -117.12943 | 465 ft | 3 kts | 211° |
| 2026-04-23 04:06 | 32.87493 | -117.12945 | 465 ft | 0 kts | 163° |
| 2026-04-23 04:07 | 32.87489 | -117.12944 | 465 ft | 2 kts | 162° |
| 2026-04-23 04:07 | 32.87417 | -117.12916 | 464 ft | 14 kts | 164° |
| 2026-04-23 04:07 | 32.87339 | -117.12847 | 461 ft | 18 kts | 159° |
| 2026-04-23 04:07 | 32.87234 | -117.12962 | 458 ft | 37 kts | 246° |
| 2026-04-23 04:08 | 32.87060 | -117.13660 | 586 ft | 126 kts | 255° |
| 2026-04-23 04:08 | 32.86784 | -117.14859 | 1093 ft | 162 kts | 255° |
| 2026-04-23 04:08 | 32.86417 | -117.16183 | 1720 ft | 174 kts | 251° |
| 2026-04-23 04:08 | 32.85969 | -117.17566 | 2313 ft | 186 kts | 248° |
| 2026-04-23 04:09 | 32.85306 | -117.18857 | 3050 ft | 176 kts | 237° |
| 2026-04-23 04:09 | 32.84371 | -117.19414 | 3062 ft | 152 kts | 167° |
| 2026-04-23 04:09 | 32.83641 | -117.18607 | 2565 ft | 143 kts | 98° |
| 2026-04-23 04:09 | 32.83513 | -117.17482 | 2308 ft | 132 kts | 107° |
| 2026-04-23 04:10 | 32.83157 | -117.16395 | 1844 ft | 156 kts | 111° |
| 2026-04-23 04:10 | 32.82696 | -117.15189 | 1545 ft | 161 kts | 110° |
| 2026-04-23 04:10 | 32.82338 | -117.14045 | 1370 ft | 134 kts | 108° |
| 2026-04-23 04:10 | 32.82142 | -117.13101 | 1227 ft | 110 kts | 102° |
| 2026-04-23 04:11 | 32.81530 | -117.12722 | 805 ft | 117 kts | 213° |
| 2026-04-23 04:11 | 32.81447 | -117.13550 | 456 ft | 106 kts | 299° |
| 2026-04-23 04:11 | 32.81757 | -117.14327 | 572 ft | 116 kts | 293° |
| 2026-04-23 04:11 | 32.82058 | -117.15187 | 903 ft | 101 kts | 292° |
| 2026-04-23 04:12 | 32.82497 | -117.15777 | 809 ft | 107 kts | 354° |
| 2026-04-23 04:12 | 32.83067 | -117.15363 | 912 ft | 104 kts | 79° |
| 2026-04-23 04:12 | 32.83024 | -117.14301 | 1150 ft | 148 kts | 97° |
| 2026-04-23 04:12 | 32.82818 | -117.12978 | 1349 ft | 171 kts | 99° |
| 2026-04-23 04:13 | 32.82592 | -117.11646 | 1659 ft | 149 kts | 102° |
| 2026-04-23 04:13 | 32.82007 | -117.10905 | 1539 ft | 120 kts | 168° |
| 2026-04-23 04:13 | 32.81255 | -117.11097 | 1197 ft | 109 kts | 215° |
| 2026-04-23 04:13 | 32.80892 | -117.11831 | 989 ft | 108 kts | 258° |
| 2026-04-23 04:14 | 32.81084 | -117.12638 | 746 ft | 105 kts | 299° |
| 2026-04-23 04:14 | 32.81389 | -117.13393 | 458 ft | 94 kts | 298° |
| 2026-04-23 04:14 | 32.81632 | -117.13997 | 423 ft | 73 kts | 296° |
| 2026-04-23 04:14 | 32.81945 | -117.14789 | 893 ft | 123 kts | 294° |
| 2026-04-23 04:15 | 32.82557 | -117.15480 | 1087 ft | 137 kts | 360° |
| 2026-04-23 04:15 | 32.83387 | -117.15116 | 1218 ft | 138 kts | 73° |
| 2026-04-23 04:15 | 32.82968 | -117.12583 | 1725 ft | 165 kts | 104° |
| 2026-04-23 04:16 | 32.82651 | -117.11203 | 1848 ft | 180 kts | 103° |
| 2026-04-23 04:16 | 32.82012 | -117.10122 | 1940 ft | 147 kts | 167° |
| 2026-04-23 04:16 | 32.81037 | -117.10192 | 1570 ft | 138 kts | 195° |
| 2026-04-23 04:16 | 32.80469 | -117.10869 | 1274 ft | 112 kts | 279° |
| 2026-04-23 04:17 | 32.80731 | -117.11686 | 983 ft | 103 kts | 294° |
| 2026-04-23 04:17 | 32.81002 | -117.12430 | 702 ft | 97 kts | 296° |
| 2026-04-23 04:17 | 32.81298 | -117.13165 | 490 ft | 98 kts | 298° |
| 2026-04-23 04:17 | 32.81558 | -117.13815 | 423 ft | 73 kts | 298° |
| 2026-04-23 04:18 | 32.81798 | -117.14449 | 588 ft | 108 kts | 292° |
| 2026-04-23 04:18 | 32.82146 | -117.15440 | 1239 ft | 140 kts | 291° |
| 2026-04-23 04:18 | 32.82894 | -117.16011 | 1688 ft | 157 kts | 12° |
| 2026-04-23 04:18 | 32.83256 | -117.15001 | 1692 ft | 160 kts | 99° |
| 2026-04-23 04:19 | 32.82969 | -117.13756 | 1671 ft | 151 kts | 99° |
| 2026-04-23 04:19 | 32.82795 | -117.12547 | 1601 ft | 148 kts | 100° |
| 2026-04-23 04:19 | 32.82649 | -117.11761 | 1575 ft | 147 kts | 102° |
| 2026-04-23 04:19 | 32.82411 | -117.10565 | 1505 ft | 147 kts | 106° |
| 2026-04-23 04:20 | 32.81629 | -117.10028 | 1411 ft | 141 kts | 181° |
| 2026-04-23 04:20 | 32.80678 | -117.10293 | 1256 ft | 145 kts | 229° |
| 2026-04-23 04:20 | 32.80642 | -117.11477 | 1141 ft | 160 kts | 299° |
| 2026-04-23 04:20 | 32.81090 | -117.12607 | 638 ft | 136 kts | 292° |
| 2026-04-23 04:21 | 32.81413 | -117.13442 | 435 ft | 90 kts | 295° |
| 2026-04-23 04:21 | 32.81619 | -117.13973 | 419 ft | 48 kts | 298° |
| 2026-04-23 04:21 | 32.81680 | -117.14126 | 419 ft | 4 kts | 281° |
| 2026-04-23 04:21 | 32.81659 | -117.14177 | 419 ft | 5 kts | 237° |
| 2026-04-23 04:22 | 32.81651 | -117.14193 | 416 ft | 0 kts | 240° |
| 2026-04-23 04:22 | 32.81649 | -117.14197 | 418 ft | 1 kts | 239° |
| 2026-04-23 04:22 | 32.81611 | -117.14279 | 421 ft | 16 kts | 241° |
| 2026-04-23 04:22 | 32.81576 | -117.14364 | 421 ft | 0 kts | 246° |
| 2026-04-23 04:23 | 32.81575 | -117.14365 | 418 ft | 1 kts | 232° |
| 2026-04-23 04:23 | 32.81549 | -117.14360 | 423 ft | 6 kts | 134° |
| 2026-04-23 04:23 | 32.81529 | -117.14321 | 424 ft | 6 kts | 117° |
| 2026-04-23 04:23 | 32.81510 | -117.14278 | 424 ft | 6 kts | 117° |
| 2026-04-23 04:24 | 32.81488 | -117.14229 | 425 ft | 7 kts | 153° |
| 2026-04-23 04:24 | 32.81460 | -117.14237 | 424 ft | 0 kts | 204° |
| 2026-04-23 04:24 | 32.81459 | -117.14238 | 424 ft | 0 kts | 204° |